createdAt,value
2023-02-17T00:00:50.410Z,5.10
2023-02-17T00:03:53.747Z,4.72
2023-02-17T00:06:56.538Z,4.75
2023-02-17T00:09:59.234Z,4.43
2023-02-17T00:13:00.803Z,3.45
2023-02-17T00:16:21.743Z,3.80
2023-02-17T00:19:25.067Z,3.15
2023-02-17T00:22:26.866Z,3.55
2023-02-17T00:25:28.517Z,3.28
2023-02-17T00:28:30.097Z,3.30
2023-02-17T00:31:31.832Z,3.80
2023-02-17T00:34:34.122Z,3.45
2023-02-17T00:37:35.814Z,3.17
2023-02-17T00:40:38.926Z,3.90
2023-02-17T00:43:40.600Z,3.70
2023-02-17T00:46:42.233Z,3.50
2023-02-17T00:49:43.940Z,3.67
2023-02-17T00:52:45.546Z,3.80
2023-02-17T00:55:47.282Z,3.65
2023-02-17T00:58:49.133Z,4.13
2023-02-17T01:01:51.646Z,4.20
2023-02-17T01:04:53.794Z,3.70
2023-02-17T01:07:56.053Z,3.65
2023-02-17T01:10:57.757Z,3.90
2023-02-17T01:14:00.341Z,3.95
2023-02-17T01:17:02.730Z,3.65
2023-02-17T01:20:05.142Z,3.35
2023-02-17T01:23:09.101Z,3.70
2023-02-17T01:26:18.910Z,3.63
2023-02-17T01:29:20.523Z,3.40
2023-02-17T01:32:22.078Z,3.88
2023-02-17T01:35:23.715Z,3.20
2023-02-17T01:38:25.327Z,3.30
2023-02-17T01:41:28.795Z,3.67
2023-02-17T01:44:33.656Z,3.92
2023-02-17T01:47:35.380Z,3.65
2023-02-17T01:50:48.797Z,3.50
2023-02-17T01:54:01.558Z,3.70
2023-02-17T01:57:03.734Z,3.88
2023-02-17T02:00:09.538Z,3.60
2023-02-17T02:03:14.807Z,4.65
2023-02-17T02:06:24.916Z,3.90
2023-02-17T02:09:38.980Z,3.90
2023-02-17T02:12:42.727Z,4.20
2023-02-17T02:16:01.552Z,3.70
2023-02-17T02:19:46.984Z,4.22
2023-02-17T02:22:51.567Z,4.00
2023-02-17T02:26:22.440Z,3.80
2023-02-17T02:29:42.836Z,4.15
2023-02-17T02:32:52.794Z,3.70
2023-02-17T02:36:06.813Z,4.15
2023-02-17T02:39:17.308Z,3.72
2023-02-17T02:42:23.040Z,4.00
2023-02-17T02:45:25.431Z,4.03
2023-02-17T02:48:27.538Z,3.58
2023-02-17T02:51:38.557Z,3.55
2023-02-17T02:54:56.899Z,3.70
2023-02-17T02:58:04.607Z,3.80
2023-02-17T03:01:16.015Z,3.72
2023-02-17T03:04:38.711Z,3.45
2023-02-17T03:07:49.135Z,3.83
2023-02-17T03:10:54.431Z,3.70
2023-02-17T03:14:00.781Z,3.70
2023-02-17T03:17:03.560Z,4.47
2023-02-17T03:20:11.133Z,3.60
2023-02-17T03:23:14.772Z,3.83
2023-02-17T03:26:16.389Z,3.75
2023-02-17T03:29:18.017Z,3.65
2023-02-17T03:32:20.594Z,4.40
2023-02-17T03:35:22.278Z,4.15
2023-02-17T03:38:24.172Z,3.88
2023-02-17T03:41:26.168Z,4.30
2023-02-17T03:44:27.840Z,3.45
2023-02-17T03:47:29.420Z,3.58
2023-02-17T03:50:31.334Z,3.63
2023-02-17T03:53:32.870Z,3.85
2023-02-17T03:56:34.600Z,3.78
2023-02-17T03:59:36.514Z,3.97
2023-02-17T04:02:38.083Z,4.20
2023-02-17T04:05:39.620Z,4.28
2023-02-17T04:08:41.768Z,4.10
2023-02-17T04:11:43.594Z,4.47
2023-02-17T04:14:45.177Z,4.35
2023-02-17T04:17:46.864Z,3.90
2023-02-17T04:20:50.337Z,3.97
2023-02-17T04:23:52.020Z,3.88
2023-02-17T04:26:53.867Z,3.95
2023-02-17T04:29:55.903Z,3.92
2023-02-17T04:32:58.193Z,4.45
2023-02-17T04:36:00.162Z,4.18
2023-02-17T04:39:01.923Z,3.53
2023-02-17T04:42:04.620Z,3.67
2023-02-17T04:45:07.865Z,4.10
2023-02-17T04:48:09.635Z,4.40
2023-02-17T04:51:11.268Z,3.60
2023-02-17T04:54:12.811Z,3.58
2023-02-17T04:57:14.462Z,4.13
2023-02-17T05:00:16.171Z,3.75
2023-02-17T05:03:19.292Z,3.83
2023-02-17T05:06:20.938Z,3.30
2023-02-17T05:09:22.560Z,3.20
2023-02-17T05:12:24.608Z,3.35
2023-02-17T05:15:26.313Z,3.42
2023-02-17T05:18:27.896Z,3.08
2023-02-17T05:21:29.482Z,3.97
2023-02-17T05:24:31.116Z,3.45
2023-02-17T05:27:33.414Z,3.20
2023-02-17T05:30:34.985Z,3.30
2023-02-17T05:33:36.682Z,2.97
2023-02-17T05:36:38.291Z,3.22
2023-02-17T05:39:40.002Z,3.60
2023-02-17T05:42:41.612Z,3.63
2023-02-17T05:45:43.231Z,3.47
2023-02-17T05:48:45.981Z,2.92
2023-02-17T05:51:47.567Z,3.15
2023-02-17T05:54:49.213Z,3.42
2023-02-17T05:57:50.766Z,3.30
2023-02-17T06:00:52.752Z,3.53
2023-02-17T06:03:54.555Z,3.13
2023-02-17T06:06:56.246Z,3.47
2023-02-17T06:09:57.961Z,3.40
2023-02-17T06:12:59.568Z,3.33
2023-02-17T06:16:01.250Z,3.42
2023-02-17T06:19:05.076Z,3.08
2023-02-17T06:22:06.939Z,3.00
2023-02-17T06:25:08.941Z,3.25
2023-02-17T06:28:10.776Z,2.92
2023-02-17T06:31:12.571Z,2.80
2023-02-17T06:34:14.186Z,2.95
2023-02-17T06:37:16.222Z,3.10
2023-02-17T06:40:18.532Z,2.90
2023-02-17T06:43:20.506Z,3.20
2023-02-17T06:46:22.150Z,3.20
2023-02-17T06:49:23.737Z,3.58
2023-02-17T06:52:25.424Z,3.60
2023-02-17T06:55:28.356Z,3.15
2023-02-17T06:58:29.958Z,3.72
2023-02-17T07:01:34.316Z,4.15
2023-02-17T07:04:38.480Z,4.28
2023-02-17T07:07:40.472Z,4.13
2023-02-17T07:10:43.936Z,3.50
2023-02-17T07:13:46.430Z,3.40
2023-02-17T07:16:48.129Z,3.38
2023-02-17T07:19:49.868Z,3.00
2023-02-17T07:22:51.475Z,3.65
2023-02-17T07:25:53.060Z,3.35
2023-02-17T07:28:54.774Z,2.88
2023-02-17T07:31:56.488Z,3.10
2023-02-17T07:34:58.106Z,3.35
2023-02-17T07:38:01.103Z,2.58
2023-02-17T07:41:10.628Z,3.00
2023-02-17T07:44:13.862Z,2.88
2023-02-17T07:47:15.453Z,2.95
2023-02-17T07:50:18.443Z,2.75
2023-02-17T07:53:20.133Z,2.85
2023-02-17T07:56:23.257Z,3.00
2023-02-17T07:59:24.868Z,2.58
2023-02-17T08:02:26.822Z,2.60
2023-02-17T08:05:33.000Z,2.70
2023-02-17T08:08:54.612Z,2.80
2023-02-17T08:12:15.447Z,2.38
2023-02-17T08:15:17.224Z,2.20
2023-02-17T08:18:19.180Z,2.60
2023-02-17T08:21:22.221Z,2.65
2023-02-17T08:24:24.758Z,2.45
2023-02-17T08:27:26.476Z,2.90
2023-02-17T08:30:28.330Z,2.53
2023-02-17T08:33:30.311Z,2.45
2023-02-17T08:36:32.097Z,2.67
2023-02-17T08:39:34.795Z,7.50
2023-02-17T08:42:44.045Z,3.17
2023-02-17T08:45:45.952Z,3.17
2023-02-17T08:48:48.317Z,2.80
2023-02-17T08:51:51.076Z,3.47
2023-02-17T08:54:53.369Z,2.45
2023-02-17T08:57:55.651Z,3.22
2023-02-17T09:00:57.401Z,2.80
2023-02-17T09:04:00.539Z,2.55
2023-02-17T09:07:02.218Z,3.05
2023-02-17T09:10:09.613Z,3.03
2023-02-17T09:13:11.951Z,2.95
2023-02-17T09:16:17.069Z,3.08
2023-02-17T09:19:22.398Z,3.10
2023-02-17T09:22:32.133Z,3.10
2023-02-17T09:25:34.594Z,3.22
2023-02-17T09:28:36.969Z,3.17
2023-02-17T09:31:38.716Z,2.83
2023-02-17T09:34:42.345Z,3.03
2023-02-17T09:37:46.498Z,3.30
2023-02-17T09:40:50.165Z,3.90
2023-02-17T09:43:56.659Z,2.80
2023-02-17T09:47:13.457Z,3.47
2023-02-17T09:50:20.502Z,3.67
2023-02-17T09:53:39.228Z,3.70
2023-02-17T09:56:48.522Z,3.75
2023-02-17T09:59:59.106Z,3.20
2023-02-17T10:03:16.642Z,3.60
2023-02-17T10:06:34.008Z,3.78
2023-02-17T10:09:50.096Z,4.13
2023-02-17T10:12:56.955Z,3.60
2023-02-17T10:16:03.367Z,3.83
2023-02-17T10:19:14.380Z,3.28
2023-02-17T10:22:22.018Z,4.32
2023-02-17T10:25:50.620Z,3.50
2023-02-17T10:29:17.146Z,3.45
2023-02-17T10:32:23.793Z,3.53
2023-02-17T10:35:48.014Z,3.30
2023-02-17T10:38:52.223Z,3.40
2023-02-17T10:41:55.754Z,3.60
2023-02-17T10:45:37.647Z,3.42
2023-02-17T10:48:45.973Z,3.70
2023-02-17T10:51:47.629Z,3.17
2023-02-17T10:54:59.817Z,3.30
2023-02-17T10:58:38.252Z,3.20
2023-02-17T11:01:52.149Z,3.15
2023-02-17T11:04:56.644Z,3.13
2023-02-17T11:08:28.200Z,3.60
2023-02-17T11:11:32.097Z,3.50
2023-02-17T11:14:37.219Z,2.92
2023-02-17T11:17:44.542Z,3.13
2023-02-17T11:20:46.703Z,3.08
2023-02-17T11:23:54.633Z,2.88
2023-02-17T11:26:58.070Z,3.20
2023-02-17T11:30:08.657Z,2.85
2023-02-17T11:33:15.565Z,4.07
2023-02-17T11:36:32.321Z,3.38
2023-02-17T11:39:40.130Z,3.20
2023-02-17T11:42:42.853Z,3.10
2023-02-17T11:46:15.321Z,2.90
2023-02-17T11:50:01.288Z,2.92
2023-02-17T11:53:33.512Z,3.38
2023-02-17T11:56:38.414Z,2.70
2023-02-17T12:00:19.629Z,2.72
2023-02-17T12:03:41.468Z,2.92
2023-02-17T12:07:08.021Z,2.92
2023-02-17T12:10:45.604Z,3.00
2023-02-17T12:14:12.346Z,2.85
2023-02-17T12:17:24.316Z,3.25
2023-02-17T12:20:37.608Z,2.97
2023-02-17T12:23:48.281Z,2.63
2023-02-17T12:27:08.373Z,3.40
2023-02-17T12:30:54.791Z,3.35
2023-02-17T12:34:06.184Z,3.28
2023-02-17T12:37:26.787Z,3.70
2023-02-17T12:41:05.959Z,3.20
2023-02-17T12:44:26.479Z,3.03
2023-02-17T12:47:51.988Z,3.25
2023-02-17T12:51:00.959Z,3.00
2023-02-17T12:54:02.458Z,3.28
2023-02-17T12:57:07.032Z,3.20
2023-02-17T13:00:23.933Z,3.08
2023-02-17T13:03:31.981Z,3.33
2023-02-17T13:06:44.098Z,3.45
2023-02-17T13:09:47.782Z,3.05
2023-02-17T13:12:58.849Z,3.20
2023-02-17T13:16:12.853Z,2.50
2023-02-17T13:19:15.180Z,3.33
2023-02-17T13:22:23.875Z,2.88
2023-02-17T13:25:31.722Z,2.65
2023-02-17T13:28:38.583Z,2.72
2023-02-17T13:31:46.364Z,3.10
2023-02-17T13:35:01.333Z,3.28
2023-02-17T13:38:03.732Z,3.30
2023-02-17T13:41:07.062Z,3.17
2023-02-17T13:44:26.035Z,2.92
2023-02-17T13:47:39.218Z,3.28
2023-02-17T13:50:46.871Z,3.47
2023-02-17T13:53:50.619Z,2.92
2023-02-17T13:56:53.828Z,3.17
2023-02-17T14:00:05.780Z,2.97
2023-02-17T14:03:22.593Z,2.95
2023-02-17T14:06:32.608Z,3.38
2023-02-17T14:09:35.328Z,2.97
2023-02-17T14:12:37.064Z,3.40
2023-02-17T14:15:50.196Z,3.85
2023-02-17T14:19:03.678Z,5.45
2023-02-17T14:22:06.403Z,4.50
2023-02-17T14:25:13.653Z,3.58
2023-02-17T14:28:27.142Z,3.10
2023-02-17T14:31:29.071Z,3.40
2023-02-17T14:34:34.229Z,3.05
2023-02-17T14:37:36.993Z,3.08
2023-02-17T14:40:40.286Z,3.03
2023-02-17T14:43:41.955Z,3.00
2023-02-17T14:46:43.752Z,3.08
2023-02-17T14:49:45.336Z,2.90
2023-02-17T14:52:49.146Z,2.70
2023-02-17T14:56:09.384Z,2.92
2023-02-17T14:59:11.282Z,3.00
2023-02-17T15:02:16.517Z,3.50
2023-02-17T15:28:55.844Z,3.00
2023-02-17T15:32:00.805Z,3.22
2023-02-17T15:53:05.586Z,2.83
2023-02-17T15:56:19.103Z,2.65
2023-02-17T15:59:26.774Z,2.83
2023-02-17T16:05:30.551Z,3.50
2023-02-17T16:08:32.172Z,3.70
2023-02-17T16:11:34.522Z,3.28
2023-02-17T16:14:37.574Z,3.70
2023-02-17T16:21:17.420Z,2.53
2023-02-17T16:24:18.984Z,2.90
2023-02-17T16:27:20.653Z,3.17
2023-02-17T16:30:23.759Z,2.78
2023-02-17T16:33:25.482Z,3.00
2023-02-17T16:36:31.313Z,3.25
2023-02-17T16:39:33.059Z,2.60
2023-02-17T16:42:34.675Z,3.22
2023-02-17T16:45:36.353Z,3.35
2023-02-17T16:48:42.080Z,3.20
2023-02-17T16:51:43.725Z,2.95
2023-02-17T16:54:45.275Z,3.65
2023-02-17T16:57:47.865Z,2.90
2023-02-17T17:00:52.272Z,2.80
2023-02-17T17:03:53.883Z,3.10
2023-02-17T17:06:55.481Z,2.80
2023-02-17T17:10:15.272Z,3.50
2023-02-17T17:13:17.386Z,3.30
2023-02-17T17:16:23.010Z,2.78
2023-02-17T17:19:24.749Z,3.00
2023-02-17T17:22:26.370Z,3.38
2023-02-17T17:25:29.317Z,3.17
2023-02-17T17:28:31.071Z,2.92
2023-02-17T17:31:32.934Z,3.28
2023-02-17T17:34:34.613Z,4.65
2023-02-17T17:37:38.084Z,3.40
2023-02-17T17:40:50.329Z,3.55
2023-02-17T17:43:52.707Z,4.18
2023-02-17T17:46:54.515Z,3.65
2023-02-17T17:49:56.152Z,3.88
2023-02-17T17:52:57.754Z,3.95
2023-02-17T17:55:59.414Z,3.05
2023-02-17T17:59:03.210Z,3.65
2023-02-17T18:02:05.269Z,3.67
2023-02-17T18:05:07.483Z,3.72
2023-02-17T18:08:09.233Z,3.67
2023-02-17T18:11:12.867Z,2.78
2023-02-17T18:14:15.786Z,3.15
2023-02-17T18:17:18.237Z,3.17
2023-02-17T18:20:20.008Z,2.72
2023-02-17T18:23:21.601Z,2.53
2023-02-17T18:26:23.393Z,5.55
2023-02-17T18:29:25.426Z,3.25
2023-02-17T18:32:27.121Z,2.60
2023-02-17T18:35:31.158Z,2.78
2023-02-17T18:38:32.707Z,2.58
2023-02-17T18:41:37.319Z,3.40
2023-02-17T18:44:38.838Z,3.30
2023-02-17T18:47:40.521Z,4.85
2023-02-17T18:50:46.270Z,2.88
2023-02-17T18:53:49.186Z,3.25
2023-02-17T18:56:50.866Z,4.25
2023-02-17T19:06:26.011Z,4.13
2023-02-17T19:09:31.823Z,3.15
2023-02-17T19:12:37.491Z,3.22
2023-02-17T19:15:41.708Z,3.47
2023-02-17T19:18:51.420Z,3.00
2023-02-17T19:21:54.291Z,2.95
2023-02-17T19:24:56.165Z,2.67
2023-02-17T19:27:59.997Z,2.70
2023-02-17T19:34:58.615Z,2.50
2023-02-17T19:38:00.259Z,2.40
2023-02-17T19:41:06.514Z,2.47
2023-02-17T19:44:08.104Z,2.40
2023-02-17T19:47:12.346Z,2.35
2023-02-17T19:50:16.019Z,2.00
2023-02-17T19:57:02.964Z,2.08
2023-02-17T20:00:06.256Z,2.15
2023-02-17T20:03:07.902Z,3.00
2023-02-17T20:06:12.712Z,2.20
2023-02-17T20:09:20.802Z,2.13
2023-02-17T20:12:23.792Z,2.42
2023-02-17T20:15:25.504Z,2.20
2023-02-17T20:18:29.856Z,2.17
2023-02-17T20:21:38.432Z,2.60
2023-02-17T20:24:41.904Z,1.92
2023-02-17T20:27:46.524Z,2.40
2023-02-17T20:30:48.055Z,2.42
2023-02-17T20:33:53.256Z,2.28
2023-02-17T20:37:04.310Z,2.40
2023-02-17T20:40:06.861Z,2.45
2023-02-17T20:43:17.372Z,2.60
2023-02-17T20:46:24.399Z,2.30
2023-02-17T20:49:26.378Z,2.47
2023-02-17T20:52:27.921Z,2.70
2023-02-17T20:55:29.590Z,2.50
2023-02-17T20:58:31.165Z,2.58
2023-02-17T21:01:32.809Z,2.65
2023-02-17T21:04:34.348Z,2.70
2023-02-17T21:07:35.971Z,2.40
2023-02-17T21:10:39.996Z,2.10
2023-02-17T21:13:47.990Z,2.65
2023-02-17T21:16:49.867Z,2.55
2023-02-17T21:19:54.590Z,2.65
2023-02-17T21:22:58.433Z,3.17
2023-02-17T21:26:06.003Z,3.13
2023-02-17T21:29:08.182Z,2.63
2023-02-17T21:32:15.153Z,2.55
2023-02-17T21:35:19.287Z,2.55
2023-02-17T21:38:22.578Z,2.50
2023-02-17T21:41:27.621Z,2.35
2023-02-17T21:44:55.129Z,2.70
2023-02-17T21:48:04.173Z,2.85
2023-02-17T21:51:11.276Z,2.00
2023-02-17T21:54:14.954Z,1.98
2023-02-17T21:57:19.611Z,2.03
2023-02-17T22:00:22.018Z,2.03
2023-02-17T22:03:27.256Z,1.70
2023-02-17T22:06:32.721Z,2.03
2023-02-17T22:09:37.077Z,2.17
2023-02-17T22:12:42.260Z,1.80
2023-02-17T22:15:43.945Z,1.60
2023-02-17T22:18:45.540Z,1.70
2023-02-17T22:21:49.002Z,1.70
2023-02-17T22:24:50.620Z,1.80
2023-02-17T22:27:52.216Z,1.77
2023-02-17T22:30:53.781Z,1.75
2023-02-17T22:34:09.699Z,1.73
2023-02-17T22:37:11.267Z,1.80
2023-02-17T22:40:14.952Z,1.50
2023-02-17T22:43:22.716Z,1.50
2023-02-17T22:46:27.043Z,1.83
2023-02-17T22:52:45.078Z,1.65
2023-02-17T22:55:57.535Z,2.00
2023-02-17T22:59:05.416Z,2.20
2023-02-17T23:02:12.827Z,2.10
2023-02-17T23:05:16.195Z,1.98
2023-02-17T23:08:27.252Z,1.73
2023-02-17T23:11:50.860Z,1.98
2023-02-17T23:14:52.489Z,1.92
2023-02-17T23:17:57.009Z,2.08
2023-02-17T23:21:08.474Z,1.90
2023-02-17T23:24:12.555Z,1.77
2023-02-17T23:27:15.218Z,1.70
2023-02-17T23:30:21.208Z,1.83
2023-02-17T23:33:23.698Z,1.80
2023-02-17T23:36:27.657Z,1.83
2023-02-17T23:42:47.492Z,1.83
2023-02-17T23:46:01.481Z,2.00
2023-02-17T23:49:03.518Z,1.80
2023-02-17T23:52:14.685Z,2.47
2023-02-17T23:55:16.283Z,2.42
2023-02-17T23:58:17.911Z,2.35
